createdAt,value
2023-03-31T00:01:34.344Z,14.66
2023-03-31T00:04:04.800Z,14.67
2023-03-31T00:06:38.054Z,14.67
2023-03-31T00:11:34.650Z,14.66
2023-03-31T00:14:02.779Z,14.65
2023-03-31T00:16:30.480Z,14.66
2023-03-31T00:18:58.113Z,14.65
2023-03-31T00:21:29.461Z,14.65
2023-03-31T00:24:00.880Z,14.64
2023-03-31T00:26:29.328Z,14.63
2023-03-31T00:28:57.712Z,14.64
2023-03-31T00:31:27.114Z,14.64
2023-03-31T00:33:55.659Z,14.63
2023-03-31T00:36:27.428Z,14.64
2023-03-31T00:38:56.204Z,14.63
2023-03-31T00:41:25.150Z,14.63
2023-03-31T00:44:08.204Z,14.63
2023-03-31T00:46:41.603Z,14.62
2023-03-31T00:49:17.841Z,14.62
2023-03-31T00:51:46.813Z,14.61
2023-03-31T00:54:15.457Z,14.62
2023-03-31T00:56:48.080Z,14.63
2023-03-31T00:59:16.833Z,14.61
2023-03-31T01:01:50.472Z,14.62
2023-03-31T01:04:22.616Z,14.63
2023-03-31T01:07:00.760Z,14.62
2023-03-31T01:09:35.008Z,14.62
2023-03-31T01:12:08.296Z,14.61
2023-03-31T01:14:37.525Z,14.63
2023-03-31T01:17:05.566Z,14.62
2023-03-31T01:19:49.680Z,14.62
2023-03-31T01:22:46.845Z,14.63
2023-03-31T01:25:52.730Z,14.62
2023-03-31T01:28:32.750Z,14.62
2023-03-31T01:31:29.878Z,14.63
2023-03-31T01:34:20.993Z,14.64
2023-03-31T01:37:21.194Z,14.63
2023-03-31T01:40:22.030Z,14.62
2023-03-31T01:42:55.946Z,14.62
2023-03-31T01:45:34.206Z,14.64
2023-03-31T01:48:08.309Z,14.64
2023-03-31T01:50:44.519Z,14.63
2023-03-31T01:53:19.761Z,14.63
2023-03-31T01:55:56.291Z,14.63
2023-03-31T01:58:28.744Z,14.63
2023-03-31T02:01:03.612Z,14.62
2023-03-31T02:03:34.998Z,14.62
2023-03-31T02:06:11.233Z,14.61
2023-03-31T02:08:43.280Z,14.61
2023-03-31T02:11:13.280Z,14.61
2023-03-31T02:13:44.595Z,14.61
2023-03-31T02:16:17.002Z,14.61
2023-03-31T02:18:47.232Z,14.59
2023-03-31T02:21:16.472Z,14.59
2023-03-31T02:23:45.744Z,14.58
2023-03-31T02:26:17.657Z,14.58
2023-03-31T02:28:45.768Z,14.60
2023-03-31T02:31:26.969Z,14.60
2023-03-31T02:33:54.905Z,14.60
2023-03-31T02:36:23.163Z,14.59
2023-03-31T02:38:55.394Z,14.60
2023-03-31T02:41:24.862Z,14.61
2023-03-31T02:43:52.551Z,14.60
2023-03-31T02:46:20.543Z,14.60
2023-03-31T02:48:51.884Z,14.60
2023-03-31T02:51:35.406Z,14.59
2023-03-31T02:54:50.242Z,14.61
2023-03-31T02:57:49.179Z,14.61
2023-03-31T03:00:25.118Z,14.60
2023-03-31T03:03:09.808Z,14.61
2023-03-31T03:05:45.718Z,14.61
2023-03-31T03:08:25.565Z,14.62
2023-03-31T03:11:02.744Z,14.60
2023-03-31T03:13:40.935Z,14.61
2023-03-31T03:16:13.922Z,14.60
2023-03-31T03:18:41.736Z,14.60
2023-03-31T03:21:09.338Z,14.60
2023-03-31T03:23:37.266Z,14.60
2023-03-31T03:26:05.102Z,14.61
2023-03-31T03:28:34.188Z,14.61
2023-03-31T03:31:01.860Z,14.60
2023-03-31T03:33:29.501Z,14.61
2023-03-31T03:35:57.152Z,14.61
2023-03-31T03:38:24.802Z,14.59
2023-03-31T03:40:54.981Z,14.61
2023-03-31T03:43:22.684Z,14.61
2023-03-31T03:45:51.929Z,14.60
2023-03-31T03:48:19.971Z,14.60
2023-03-31T03:50:47.995Z,14.60
2023-03-31T03:53:16.141Z,14.58
2023-03-31T03:55:45.012Z,14.60
2023-03-31T03:58:12.656Z,14.60
2023-03-31T04:00:40.340Z,14.57
2023-03-31T04:03:09.370Z,14.58
2023-03-31T04:05:37.011Z,14.58
2023-03-31T04:08:06.131Z,14.58
2023-03-31T04:10:33.692Z,14.60
2023-03-31T04:13:01.300Z,14.61
2023-03-31T04:15:28.924Z,14.61
2023-03-31T04:17:58.182Z,14.62
2023-03-31T04:20:30.587Z,14.62
2023-03-31T04:22:58.672Z,14.63
2023-03-31T04:25:26.258Z,14.66
2023-03-31T04:27:55.645Z,14.65
2023-03-31T04:30:24.777Z,14.65
2023-03-31T04:32:53.542Z,14.66
2023-03-31T04:35:21.722Z,14.67
2023-03-31T04:37:52.435Z,14.67
2023-03-31T04:40:20.041Z,14.67
2023-03-31T04:42:47.654Z,14.68
2023-03-31T04:45:15.351Z,14.68
2023-03-31T04:47:43.484Z,14.68
2023-03-31T04:50:16.199Z,14.69
2023-03-31T04:52:44.589Z,14.68
2023-03-31T04:55:13.587Z,14.69
2023-03-31T04:57:42.047Z,14.69
2023-03-31T05:00:11.437Z,14.69
2023-03-31T05:02:39.122Z,14.68
2023-03-31T05:05:07.063Z,14.68
2023-03-31T05:07:34.703Z,14.69
2023-03-31T05:10:02.451Z,14.68
2023-03-31T05:12:34.659Z,14.67
2023-03-31T05:15:02.333Z,14.66
2023-03-31T05:17:32.774Z,14.66
2023-03-31T05:20:00.601Z,14.67
2023-03-31T05:22:28.881Z,14.66
2023-03-31T05:24:56.446Z,14.67
2023-03-31T05:27:24.025Z,14.67
2023-03-31T05:29:53.041Z,14.66
2023-03-31T05:32:20.633Z,14.66
2023-03-31T05:34:52.023Z,14.66
2023-03-31T05:37:19.887Z,14.66
2023-03-31T05:39:47.521Z,14.66
2023-03-31T05:42:15.109Z,14.66
2023-03-31T05:44:42.698Z,14.65
2023-03-31T05:47:11.719Z,14.65
2023-03-31T05:49:39.480Z,14.66
2023-03-31T05:52:07.546Z,14.65
2023-03-31T05:54:36.853Z,14.65
2023-03-31T05:57:06.496Z,14.64
2023-03-31T05:59:36.398Z,14.64
2023-03-31T06:02:06.784Z,14.64
2023-03-31T06:04:37.451Z,14.64
2023-03-31T06:07:06.878Z,14.64
2023-03-31T06:09:36.024Z,14.63
2023-03-31T06:12:05.238Z,14.64
2023-03-31T06:14:34.481Z,14.64
2023-03-31T06:17:03.481Z,14.65
2023-03-31T06:19:32.828Z,14.65
2023-03-31T06:22:03.246Z,14.65
2023-03-31T06:24:32.277Z,14.64
2023-03-31T06:27:01.965Z,14.65
2023-03-31T06:29:31.124Z,14.65
2023-03-31T06:32:00.240Z,14.65
2023-03-31T06:34:29.213Z,14.66
2023-03-31T06:36:58.266Z,14.64
2023-03-31T06:39:28.933Z,14.64
2023-03-31T06:41:57.739Z,14.63
2023-03-31T06:44:26.509Z,14.65
2023-03-31T06:46:55.569Z,14.63
2023-03-31T06:49:25.323Z,14.63
2023-03-31T06:51:54.484Z,14.63
2023-03-31T06:54:23.499Z,14.64
2023-03-31T06:56:53.835Z,14.63
2023-03-31T06:59:23.086Z,14.63
2023-03-31T07:01:52.262Z,14.63
2023-03-31T07:04:21.480Z,14.63
2023-03-31T07:06:50.627Z,14.63
2023-03-31T07:09:21.742Z,14.63
2023-03-31T07:11:50.686Z,14.63
2023-03-31T07:14:20.983Z,14.63
2023-03-31T07:16:51.006Z,14.62
2023-03-31T07:19:20.106Z,14.63
2023-03-31T07:21:48.982Z,14.62
2023-03-31T07:24:18.196Z,14.63
2023-03-31T07:26:47.250Z,14.63
2023-03-31T07:29:17.160Z,14.62
2023-03-31T07:31:49.541Z,14.62
2023-03-31T07:34:18.648Z,14.62
2023-03-31T07:36:47.873Z,14.62
2023-03-31T07:39:17.132Z,14.63
2023-03-31T07:41:45.942Z,14.63
2023-03-31T07:44:14.502Z,14.63
2023-03-31T07:46:43.786Z,14.63
2023-03-31T07:49:16.259Z,14.63
2023-03-31T07:51:45.395Z,14.63
2023-03-31T07:54:14.177Z,14.63
2023-03-31T07:56:43.329Z,14.63
2023-03-31T07:59:12.726Z,14.64
2023-03-31T08:01:41.795Z,14.63
2023-03-31T08:04:12.588Z,14.64
2023-03-31T08:06:43.152Z,14.64
2023-03-31T08:09:12.155Z,14.63
2023-03-31T08:11:41.480Z,14.63
2023-03-31T08:14:11.076Z,14.64
2023-03-31T08:16:40.077Z,14.64
2023-03-31T08:19:09.531Z,14.63
2023-03-31T08:21:38.485Z,14.63
2023-03-31T08:24:09.477Z,14.63
2023-03-31T08:26:38.528Z,14.63
2023-03-31T08:29:07.423Z,14.63
2023-03-31T08:31:37.085Z,14.62
2023-03-31T08:34:06.307Z,14.63
2023-03-31T08:36:35.702Z,14.62
2023-03-31T08:39:05.007Z,14.62
2023-03-31T08:41:46.947Z,14.62
2023-03-31T08:44:18.703Z,14.63
2023-03-31T08:46:48.635Z,14.63
2023-03-31T08:49:21.805Z,14.62
2023-03-31T08:51:54.286Z,14.62
2023-03-31T08:54:32.868Z,14.61
2023-03-31T08:57:06.814Z,14.62
2023-03-31T08:59:38.156Z,14.62
2023-03-31T09:02:19.817Z,14.62
2023-03-31T09:05:01.296Z,14.61
2023-03-31T09:07:39.302Z,14.63
2023-03-31T09:10:25.456Z,14.62
2023-03-31T09:13:02.173Z,14.62
2023-03-31T09:15:33.691Z,14.61
2023-03-31T09:18:19.486Z,14.61
2023-03-31T09:20:51.367Z,14.62
2023-03-31T09:23:27.806Z,14.63
2023-03-31T09:25:57.761Z,14.63
2023-03-31T09:28:34.923Z,14.63
2023-03-31T09:31:06.035Z,14.62
2023-03-31T09:33:33.682Z,14.64
2023-03-31T09:36:01.991Z,14.64
2023-03-31T09:38:31.241Z,14.63
2023-03-31T09:41:00.225Z,14.64
2023-03-31T09:43:31.111Z,14.64
2023-03-31T09:46:15.222Z,14.65
2023-03-31T09:48:51.713Z,14.65
2023-03-31T09:51:24.433Z,14.63
2023-03-31T09:53:57.335Z,14.63
2023-03-31T09:56:45.571Z,14.64
2023-03-31T09:59:17.812Z,14.63
2023-03-31T10:01:47.655Z,14.64
2023-03-31T10:04:21.964Z,14.63
2023-03-31T10:06:50.368Z,14.63
2023-03-31T10:09:18.141Z,14.62
2023-03-31T10:11:58.558Z,14.62
2023-03-31T10:14:34.429Z,14.62
2023-03-31T10:17:06.913Z,14.62
2023-03-31T10:19:37.755Z,14.62
2023-03-31T10:22:07.091Z,14.62
2023-03-31T10:24:40.240Z,14.62
2023-03-31T10:27:15.000Z,14.62
2023-03-31T10:29:44.170Z,14.61
2023-03-31T10:32:19.978Z,14.62
2023-03-31T10:34:47.637Z,14.62
2023-03-31T10:37:18.721Z,14.61
2023-03-31T10:39:47.560Z,14.62
2023-03-31T10:42:22.841Z,14.61
2023-03-31T10:44:51.839Z,14.61
2023-03-31T10:47:22.059Z,14.62
2023-03-31T10:49:52.797Z,14.61
2023-03-31T10:52:23.059Z,14.61
2023-03-31T10:54:54.048Z,14.61
2023-03-31T10:57:34.121Z,14.61
2023-03-31T11:00:18.343Z,14.61
2023-03-31T11:03:10.884Z,14.63
2023-03-31T11:05:47.067Z,14.64
2023-03-31T11:08:27.087Z,14.63
2023-03-31T11:11:10.657Z,14.64
2023-03-31T11:13:45.385Z,14.64
2023-03-31T11:16:22.515Z,14.64
2023-03-31T11:19:05.471Z,14.66
2023-03-31T11:21:42.963Z,14.65
2023-03-31T11:24:19.238Z,14.67
2023-03-31T11:26:54.855Z,14.67
2023-03-31T11:29:33.203Z,14.68
2023-03-31T11:32:17.584Z,14.67
2023-03-31T11:34:58.354Z,14.66
2023-03-31T11:37:45.766Z,14.67
2023-03-31T11:40:34.140Z,14.67
2023-03-31T11:43:06.101Z,14.67
2023-03-31T11:45:39.463Z,14.67
2023-03-31T11:48:16.282Z,14.67
2023-03-31T11:50:48.021Z,14.66
2023-03-31T11:53:19.393Z,14.66
2023-03-31T11:55:51.501Z,14.65
2023-03-31T11:58:24.595Z,14.65
2023-03-31T12:00:57.379Z,14.66
2023-03-31T12:03:34.297Z,14.67
2023-03-31T12:06:06.323Z,14.67
2023-03-31T12:08:40.077Z,14.65
2023-03-31T12:11:13.559Z,14.66
2023-03-31T12:13:46.790Z,14.66
2023-03-31T12:16:19.140Z,14.66
2023-03-31T12:19:02.222Z,14.67
2023-03-31T12:21:31.680Z,14.65
2023-03-31T12:23:59.439Z,14.65
2023-03-31T12:26:40.671Z,14.66
2023-03-31T12:29:22.380Z,14.67
2023-03-31T12:31:52.359Z,14.66
2023-03-31T12:34:24.586Z,14.66
2023-03-31T12:37:10.709Z,14.68
2023-03-31T12:39:51.518Z,14.68
2023-03-31T12:42:41.597Z,14.67
2023-03-31T12:45:23.313Z,14.67
2023-03-31T12:48:12.184Z,14.67
2023-03-31T12:50:54.604Z,14.67
2023-03-31T12:53:31.438Z,14.67
2023-03-31T12:55:59.862Z,14.68
2023-03-31T12:58:39.862Z,14.68
2023-03-31T13:01:11.234Z,14.68
2023-03-31T13:03:48.445Z,14.67
2023-03-31T13:07:09.392Z,14.68
2023-03-31T13:09:45.773Z,14.68
2023-03-31T13:12:19.614Z,14.67
2023-03-31T13:14:49.541Z,14.67
2023-03-31T13:17:25.760Z,14.67
2023-03-31T13:19:54.508Z,14.68
2023-03-31T13:22:35.140Z,14.67
2023-03-31T13:25:45.619Z,14.66
2023-03-31T13:28:24.844Z,14.65
2023-03-31T13:30:58.226Z,14.66
2023-03-31T13:33:31.736Z,14.66
2023-03-31T13:36:31.437Z,14.66
2023-03-31T13:39:26.687Z,14.66
2023-03-31T13:42:09.359Z,14.65
2023-03-31T13:44:55.469Z,14.66
2023-03-31T13:47:57.278Z,14.66
2023-03-31T13:50:38.010Z,14.65
2023-03-31T13:53:18.754Z,14.65
2023-03-31T13:56:09.399Z,14.66
2023-03-31T13:58:57.462Z,14.64
2023-03-31T14:01:41.880Z,14.66
2023-03-31T14:04:31.117Z,14.64
2023-03-31T14:07:03.278Z,14.65
2023-03-31T14:09:34.390Z,14.66
2023-03-31T14:12:02.811Z,14.65
2023-03-31T14:14:31.743Z,14.66
2023-03-31T14:17:02.018Z,14.67
2023-03-31T14:19:52.823Z,14.67
2023-03-31T14:22:32.437Z,14.67
2023-03-31T14:25:13.860Z,14.67
2023-03-31T14:27:55.286Z,14.68
2023-03-31T14:30:35.053Z,14.67
2023-03-31T14:33:14.779Z,14.67
2023-03-31T14:35:47.089Z,14.68
2023-03-31T14:38:20.138Z,14.68
2023-03-31T14:40:50.851Z,14.68
2023-03-31T14:43:21.387Z,14.69
2023-03-31T14:45:58.360Z,14.66
2023-03-31T14:48:27.737Z,14.68
2023-03-31T14:50:58.946Z,14.67
2023-03-31T14:53:28.286Z,14.68
2023-03-31T14:56:02.969Z,14.68
2023-03-31T14:58:34.909Z,14.68
2023-03-31T15:01:07.389Z,14.69
2023-03-31T15:03:37.741Z,14.66
2023-03-31T15:06:06.509Z,14.68
2023-03-31T15:08:34.220Z,14.67
2023-03-31T15:11:13.033Z,14.67
2023-03-31T15:13:56.803Z,14.66
2023-03-31T15:16:41.541Z,14.67
2023-03-31T15:19:14.871Z,14.66
2023-03-31T15:21:42.543Z,14.66
2023-03-31T15:24:13.574Z,14.66
2023-03-31T15:26:47.293Z,14.68
2023-03-31T15:29:20.814Z,14.68
2023-03-31T15:31:50.274Z,14.68
2023-03-31T15:34:27.225Z,14.69
2023-03-31T15:36:56.818Z,14.68
2023-03-31T15:39:25.655Z,14.66
2023-03-31T15:41:54.394Z,14.68
2023-03-31T15:44:46.550Z,14.68
2023-03-31T15:47:18.865Z,14.69
2023-03-31T15:49:55.398Z,14.68
2023-03-31T15:52:30.095Z,14.70
2023-03-31T15:54:58.054Z,14.69
2023-03-31T15:57:33.689Z,14.69
2023-03-31T16:00:01.710Z,14.70
2023-03-31T16:02:41.500Z,14.71
2023-03-31T16:05:27.143Z,14.71
2023-03-31T16:07:56.187Z,14.71
2023-03-31T16:10:24.658Z,14.72
2023-03-31T16:12:56.524Z,14.73
2023-03-31T16:15:33.786Z,14.72
2023-03-31T16:18:07.230Z,14.73
2023-03-31T16:20:38.765Z,14.72
2023-03-31T16:23:15.408Z,14.73
2023-03-31T16:25:43.833Z,14.72
2023-03-31T16:28:16.622Z,14.72
2023-03-31T16:30:46.161Z,14.73
2023-03-31T16:33:17.614Z,14.73
2023-03-31T16:35:48.898Z,14.72
2023-03-31T16:38:16.782Z,14.73
2023-03-31T16:40:46.604Z,14.73
2023-03-31T16:43:15.898Z,14.72
2023-03-31T16:45:46.946Z,14.72
2023-03-31T16:48:17.514Z,14.72
2023-03-31T16:50:45.997Z,14.73
2023-03-31T16:53:19.687Z,14.73
2023-03-31T16:55:47.401Z,14.73
2023-03-31T16:58:15.511Z,14.73
2023-03-31T17:00:43.640Z,14.72
2023-03-31T17:03:11.751Z,14.72
2023-03-31T17:05:42.268Z,14.71
2023-03-31T17:08:10.450Z,14.72
2023-03-31T17:10:38.612Z,14.72
2023-03-31T17:13:06.651Z,14.72
2023-03-31T17:15:36.384Z,14.73
2023-03-31T17:18:05.146Z,14.71
2023-03-31T17:20:34.206Z,14.72
2023-03-31T17:23:04.255Z,14.74
2023-03-31T17:25:33.005Z,14.75
2023-03-31T17:28:01.437Z,14.76
2023-03-31T17:30:29.147Z,14.77
2023-03-31T17:32:57.476Z,14.77
2023-03-31T17:35:25.451Z,14.78
2023-03-31T17:37:55.239Z,14.77
2023-03-31T17:40:26.841Z,14.78
2023-03-31T17:42:55.207Z,14.77
2023-03-31T17:45:23.674Z,14.78
2023-03-31T17:47:51.649Z,14.77
2023-03-31T17:50:19.640Z,14.77
2023-03-31T17:52:47.357Z,14.77
2023-03-31T17:55:15.442Z,14.78
2023-03-31T17:57:44.527Z,14.77
2023-03-31T18:00:15.100Z,14.79
2023-03-31T18:02:43.028Z,14.79
2023-03-31T18:05:11.843Z,14.79
2023-03-31T18:07:39.600Z,14.79
2023-03-31T18:10:08.486Z,14.78
2023-03-31T18:12:36.622Z,14.79
2023-03-31T18:15:07.037Z,14.78
2023-03-31T18:17:34.846Z,14.78
2023-03-31T18:20:02.512Z,14.78
2023-03-31T18:22:30.411Z,14.78
2023-03-31T18:24:58.026Z,14.79
2023-03-31T18:27:25.677Z,14.79
2023-03-31T18:29:53.329Z,14.78
2023-03-31T18:32:22.365Z,14.78
2023-03-31T18:34:50.063Z,14.77
2023-03-31T18:37:17.638Z,14.78
2023-03-31T18:39:45.702Z,14.78
2023-03-31T18:42:13.347Z,14.78
2023-03-31T18:44:40.981Z,14.77
2023-03-31T18:47:09.222Z,14.78
2023-03-31T18:49:38.329Z,14.77
2023-03-31T18:52:06.140Z,14.77
2023-03-31T18:54:33.735Z,14.77
2023-03-31T18:57:02.275Z,14.77
2023-03-31T18:59:29.906Z,14.76
2023-03-31T19:01:57.544Z,14.77
2023-03-31T19:04:25.363Z,14.77
2023-03-31T19:06:55.935Z,14.77
2023-03-31T19:09:26.022Z,14.78
2023-03-31T19:11:53.843Z,14.78
2023-03-31T19:14:21.553Z,14.77
2023-03-31T19:16:49.375Z,14.78
2023-03-31T19:19:17.160Z,14.79
2023-03-31T19:21:45.489Z,14.78
2023-03-31T19:24:14.666Z,14.79
2023-03-31T19:26:42.327Z,14.78
2023-03-31T19:29:09.989Z,14.79
2023-03-31T19:31:40.254Z,14.79
2023-03-31T19:34:11.132Z,14.79
2023-03-31T19:36:38.777Z,14.78
2023-03-31T19:39:07.384Z,14.79
2023-03-31T19:41:36.789Z,14.78
2023-03-31T19:44:04.452Z,14.79
2023-03-31T19:46:32.306Z,14.79
2023-03-31T19:49:00.020Z,14.79
2023-03-31T19:51:27.640Z,14.79
2023-03-31T19:53:55.470Z,14.78
2023-03-31T19:56:25.219Z,14.79
2023-03-31T19:58:54.189Z,14.79
2023-03-31T20:01:24.164Z,14.79
2023-03-31T20:03:52.989Z,14.78
2023-03-31T20:06:22.586Z,14.79
2023-03-31T20:08:53.699Z,14.78
2023-03-31T20:11:21.802Z,14.71
2023-03-31T20:13:49.989Z,14.69
2023-03-31T20:16:20.850Z,14.65
2023-03-31T20:18:53.978Z,14.63
2023-03-31T20:21:23.260Z,14.60
2023-03-31T20:23:51.683Z,14.57
2023-03-31T20:26:23.918Z,14.56
2023-03-31T20:28:53.161Z,14.54
2023-03-31T20:31:24.511Z,14.52
2023-03-31T20:33:53.683Z,14.53
2023-03-31T20:36:23.960Z,14.52
2023-03-31T20:38:53.259Z,14.50
2023-03-31T20:41:22.140Z,14.49
2023-03-31T20:43:50.559Z,14.49
2023-03-31T20:46:18.787Z,14.48
2023-03-31T20:48:49.466Z,14.47
2023-03-31T20:51:19.905Z,14.48
2023-03-31T20:53:49.330Z,14.47
2023-03-31T20:56:18.610Z,14.46
2023-03-31T20:58:46.619Z,14.45
2023-03-31T21:01:15.485Z,14.45
2023-03-31T21:03:43.511Z,14.44
2023-03-31T21:06:14.683Z,14.45
2023-03-31T21:08:45.340Z,14.44
2023-03-31T21:11:13.456Z,14.43
2023-03-31T21:13:41.130Z,14.42
2023-03-31T21:16:08.792Z,14.40
2023-03-31T21:18:37.637Z,14.40
2023-03-31T21:21:07.712Z,14.39
2023-03-31T21:23:37.014Z,14.39
2023-03-31T21:26:06.244Z,14.39
2023-03-31T21:28:36.273Z,14.36
2023-03-31T21:31:05.597Z,14.36
2023-03-31T21:33:34.837Z,14.37
2023-03-31T21:36:02.750Z,14.36
2023-03-31T21:38:30.392Z,14.34
2023-03-31T21:41:05.974Z,14.35
2023-03-31T21:43:33.774Z,14.34
2023-03-31T21:46:01.993Z,14.33
2023-03-31T21:48:30.166Z,14.31
2023-03-31T21:51:00.618Z,14.31
2023-03-31T21:53:30.154Z,14.31
2023-03-31T21:56:00.237Z,14.30
2023-03-31T21:58:29.679Z,14.30
2023-03-31T22:00:58.194Z,14.28
2023-03-31T22:03:28.679Z,14.26
2023-03-31T22:05:56.885Z,14.31
2023-03-31T22:08:24.956Z,14.31
2023-03-31T22:10:53.070Z,14.31
2023-03-31T22:13:23.657Z,14.30
2023-03-31T22:15:51.440Z,14.29
2023-03-31T22:18:19.590Z,14.26
2023-03-31T22:20:47.891Z,14.26
2023-03-31T22:23:15.904Z,14.25
2023-03-31T22:25:43.683Z,14.24
2023-03-31T22:28:11.474Z,14.24
2023-03-31T22:30:40.489Z,14.23
2023-03-31T22:33:08.189Z,14.22
2023-03-31T22:35:36.082Z,14.21
2023-03-31T22:38:04.996Z,14.21
2023-03-31T22:40:33.759Z,14.23
2023-03-31T22:43:01.588Z,14.20
2023-03-31T22:45:29.318Z,14.20
2023-03-31T22:47:58.480Z,14.18
2023-03-31T22:50:27.194Z,14.18
2023-03-31T22:52:54.814Z,14.18
2023-03-31T22:55:22.899Z,14.16
2023-03-31T22:57:50.553Z,14.15
2023-03-31T23:00:18.588Z,14.15
2023-03-31T23:02:46.232Z,14.14
2023-03-31T23:05:15.722Z,14.13
2023-03-31T23:07:43.381Z,14.15
2023-03-31T23:10:11.306Z,14.13
2023-03-31T23:12:38.933Z,14.12
2023-03-31T23:15:07.328Z,14.11
2023-03-31T23:17:35.067Z,14.11
2023-03-31T23:20:03.994Z,14.11
2023-03-31T23:22:33.007Z,14.10
2023-03-31T23:25:01.686Z,14.09
2023-03-31T23:27:29.301Z,14.09
2023-03-31T23:29:56.971Z,14.07
2023-03-31T23:32:24.675Z,14.08
2023-03-31T23:34:52.269Z,14.07
2023-03-31T23:37:19.932Z,14.07
2023-03-31T23:39:48.871Z,14.07
2023-03-31T23:42:20.476Z,14.05
2023-03-31T23:44:48.150Z,14.05
2023-03-31T23:47:15.819Z,14.04
2023-03-31T23:49:43.433Z,14.05
2023-03-31T23:52:11.099Z,14.05
2023-03-31T23:54:38.695Z,14.05
2023-03-31T23:57:07.763Z,14.05
2023-03-31T23:59:35.893Z,14.07
